createdAt,value
2019-05-25T00:00:30.882Z,16.50
2019-05-25T00:01:38.887Z,16.82
2019-05-25T00:02:48.037Z,15.00
2019-05-25T00:03:56.193Z,15.40
2019-05-25T00:05:05.377Z,16.73
2019-05-25T00:06:13.672Z,15.70
2019-05-25T00:07:22.399Z,15.43
2019-05-25T00:08:30.708Z,14.47
2019-05-25T00:09:39.544Z,15.13
2019-05-25T00:10:47.639Z,19.57
2019-05-25T00:11:56.565Z,15.10
2019-05-25T00:13:04.822Z,17.10
2019-05-25T00:14:13.641Z,15.17
2019-05-25T00:15:21.622Z,15.83
2019-05-25T00:16:30.686Z,16.13
2019-05-25T00:17:39.144Z,15.23
2019-05-25T00:18:48.048Z,15.77
2019-05-25T00:19:56.358Z,13.17
2019-05-25T00:21:05.730Z,15.03
2019-05-25T00:22:13.798Z,14.60
2019-05-25T00:23:22.706Z,16.00
2019-05-25T00:24:30.784Z,11.83
2019-05-25T00:25:39.878Z,13.50
2019-05-25T00:26:48.084Z,14.43
2019-05-25T00:27:57.076Z,15.73
2019-05-25T00:29:05.152Z,15.63
2019-05-25T00:30:14.806Z,13.00
2019-05-25T00:31:22.977Z,13.80
2019-05-25T00:32:31.941Z,13.47
2019-05-25T00:33:40.142Z,13.70
2019-05-25T00:34:49.159Z,12.30
2019-05-25T00:35:57.465Z,13.77
2019-05-25T00:37:06.494Z,16.17
2019-05-25T00:38:14.714Z,14.87
2019-05-25T00:39:23.882Z,10.70
2019-05-25T00:40:31.944Z,13.60
2019-05-25T00:41:40.764Z,12.13
2019-05-25T00:42:49.004Z,13.87
2019-05-25T00:43:57.810Z,10.03
2019-05-25T00:45:07.061Z,11.93
2019-05-25T00:46:16.105Z,12.57
2019-05-25T00:47:24.159Z,10.77
2019-05-25T00:48:33.168Z,11.17
2019-05-25T00:49:41.375Z,13.53
2019-05-25T00:50:49.957Z,11.93
2019-05-25T00:51:58.271Z,12.80
2019-05-25T00:53:07.060Z,14.03
2019-05-25T00:54:27.407Z,11.90
2019-05-25T00:55:26.175Z,10.63
2019-05-25T00:56:34.698Z,11.20
2019-05-25T00:57:43.569Z,17.73
2019-05-25T00:58:51.770Z,14.83
2019-05-25T01:00:00.596Z,11.53
2019-05-25T01:01:08.749Z,13.30
2019-05-25T01:02:17.849Z,10.90
2019-05-25T01:03:26.083Z,14.47
2019-05-25T01:04:35.057Z,14.53
2019-05-25T01:05:43.119Z,13.57
2019-05-25T01:06:52.049Z,15.30
2019-05-25T01:08:00.047Z,12.67
2019-05-25T01:09:09.642Z,12.03
2019-05-25T01:10:18.723Z,14.67
2019-05-25T01:11:27.391Z,9.50
2019-05-25T01:12:35.244Z,15.63
2019-05-25T01:13:43.950Z,13.50
2019-05-25T01:14:51.912Z,12.90
2019-05-25T01:16:02.194Z,15.33
2019-05-25T01:17:10.321Z,11.73
2019-05-25T01:18:19.544Z,13.53
2019-05-25T01:19:27.572Z,11.10
2019-05-25T01:20:36.496Z,10.73
2019-05-25T01:21:44.441Z,14.60
2019-05-25T01:22:53.613Z,9.80
2019-05-25T01:24:01.482Z,11.13
2019-05-25T01:25:11.153Z,11.97
2019-05-25T01:26:19.239Z,11.15
2019-05-25T01:27:28.659Z,14.37
2019-05-25T01:28:37.974Z,13.37
2019-05-25T01:29:47.109Z,15.90
2019-05-25T01:30:55.279Z,15.17
2019-05-25T01:32:04.531Z,15.30
2019-05-25T01:33:12.823Z,14.33
2019-05-25T01:34:21.849Z,11.27
2019-05-25T01:35:29.945Z,15.48
2019-05-25T01:36:38.897Z,10.73
2019-05-25T01:37:48.640Z,15.33
2019-05-25T01:38:57.486Z,12.43
2019-05-25T01:40:07.534Z,11.73
2019-05-25T01:41:16.675Z,11.75
2019-05-25T01:42:25.082Z,11.23
2019-05-25T01:43:34.097Z,10.50
2019-05-25T01:44:42.089Z,13.43
2019-05-25T01:45:50.718Z,13.90
2019-05-25T01:46:59.001Z,11.37
2019-05-25T01:48:07.889Z,13.23
2019-05-25T01:49:17.766Z,11.60
2019-05-25T01:50:26.465Z,14.67
2019-05-25T01:51:34.762Z,13.53
2019-05-25T01:52:43.639Z,13.20
2019-05-25T01:53:51.787Z,15.50
2019-05-25T01:55:00.648Z,14.70
2019-05-25T01:56:09.407Z,12.07
2019-05-25T01:57:18.738Z,12.60
2019-05-25T01:58:26.939Z,12.07
2019-05-25T01:59:35.852Z,14.00
2019-05-25T02:00:44.109Z,14.97
2019-05-25T02:01:52.825Z,15.07
2019-05-25T02:03:00.982Z,15.13
2019-05-25T02:04:10.096Z,14.83
2019-05-25T02:05:19.057Z,17.63
2019-05-25T02:06:27.825Z,16.77
2019-05-25T02:07:35.897Z,15.97
2019-05-25T02:08:45.024Z,15.43
2019-05-25T02:09:53.148Z,16.20
2019-05-25T02:11:01.774Z,16.20
2019-05-25T02:12:10.138Z,14.03
2019-05-25T02:13:19.258Z,13.17
2019-05-25T02:14:27.435Z,14.40
2019-05-25T02:15:37.614Z,14.90
2019-05-25T02:16:45.626Z,15.63
2019-05-25T02:17:54.856Z,15.53
2019-05-25T02:19:03.259Z,18.57
2019-05-25T02:20:13.120Z,17.67
2019-05-25T02:21:21.261Z,16.33
2019-05-25T02:22:30.320Z,16.60
2019-05-25T02:23:38.534Z,16.90
2019-05-25T02:24:47.221Z,14.33
2019-05-25T02:25:55.338Z,14.63
2019-05-25T02:27:04.214Z,15.53
2019-05-25T02:28:12.538Z,16.67
2019-05-25T02:29:21.532Z,14.50
2019-05-25T02:30:30.544Z,18.87
2019-05-25T02:31:39.761Z,13.47
2019-05-25T02:32:47.702Z,17.57
2019-05-25T02:33:56.985Z,14.60
2019-05-25T02:35:07.538Z,14.83
2019-05-25T02:36:16.357Z,14.77
2019-05-25T02:37:24.274Z,16.30
2019-05-25T02:38:33.124Z,18.30
2019-05-25T02:39:41.466Z,20.20
2019-05-25T02:40:50.927Z,19.40
2019-05-25T02:41:59.190Z,16.80
2019-05-25T02:43:08.352Z,18.07
2019-05-25T02:44:16.736Z,14.77
2019-05-25T02:45:25.839Z,17.87
2019-05-25T02:46:34.356Z,14.93
2019-05-25T02:47:43.362Z,12.77
2019-05-25T02:48:51.647Z,16.33
2019-05-25T02:50:00.581Z,18.67
2019-05-25T02:51:08.576Z,18.37
2019-05-25T02:52:17.354Z,15.53
2019-05-25T02:53:25.361Z,17.43
2019-05-25T02:54:34.304Z,18.50
2019-05-25T02:55:42.599Z,16.77
2019-05-25T02:56:51.738Z,18.57
2019-05-25T02:57:59.816Z,14.57
2019-05-25T02:59:09.069Z,14.90
2019-05-25T03:00:17.716Z,14.77
2019-05-25T03:01:26.052Z,13.30
2019-05-25T03:02:34.238Z,17.47
2019-05-25T03:03:42.942Z,14.20
2019-05-25T03:04:50.958Z,13.77
2019-05-25T03:06:01.008Z,15.17
2019-05-25T03:07:09.342Z,18.27
2019-05-25T03:08:18.103Z,17.90
2019-05-25T03:09:30.418Z,15.77
2019-05-25T03:10:39.687Z,14.97
2019-05-25T03:11:49.593Z,13.83
2019-05-25T03:13:00.294Z,15.63
2019-05-25T03:14:08.529Z,14.83
2019-05-25T03:15:17.994Z,12.00
2019-05-25T03:16:26.291Z,15.37
2019-05-25T03:17:35.104Z,15.20
2019-05-25T03:18:43.358Z,14.67
2019-05-25T03:19:52.505Z,13.33
2019-05-25T03:21:00.799Z,11.97
2019-05-25T03:22:09.930Z,13.00
2019-05-25T03:23:17.837Z,15.13
2019-05-25T03:24:26.757Z,14.03
2019-05-25T03:25:48.479Z,16.13
2019-05-25T03:26:45.575Z,14.50
2019-05-25T03:27:53.826Z,13.37
2019-05-25T03:29:02.790Z,14.50
2019-05-25T03:30:11.781Z,12.87
2019-05-25T03:31:20.674Z,13.57
2019-05-25T03:32:28.943Z,11.90
2019-05-25T03:33:37.728Z,15.07
2019-05-25T03:34:45.995Z,12.17
2019-05-25T03:35:54.792Z,14.20
2019-05-25T03:37:03.045Z,17.60
2019-05-25T03:38:11.401Z,13.00
2019-05-25T03:39:19.690Z,13.67
2019-05-25T03:40:28.627Z,10.77
2019-05-25T03:41:37.104Z,11.97
2019-05-25T03:42:46.097Z,12.50
2019-05-25T03:43:54.315Z,12.93
2019-05-25T03:45:03.226Z,13.77
2019-05-25T03:46:11.259Z,15.93
2019-05-25T03:47:20.410Z,12.93
2019-05-25T03:48:28.442Z,14.20
2019-05-25T03:49:37.178Z,11.03
2019-05-25T03:50:46.170Z,16.47
2019-05-25T03:51:55.025Z,14.57
2019-05-25T03:53:03.085Z,14.00
2019-05-25T03:54:12.100Z,14.98
2019-05-25T03:55:20.330Z,14.17
2019-05-25T03:56:29.841Z,12.63
2019-05-25T03:57:37.957Z,15.33
2019-05-25T03:58:46.739Z,14.50
2019-05-25T03:59:54.841Z,17.40
2019-05-25T04:01:03.940Z,14.17
2019-05-25T04:02:12.254Z,12.23
2019-05-25T04:03:21.119Z,12.20
2019-05-25T04:04:29.373Z,12.83
2019-05-25T04:05:38.184Z,14.83
2019-05-25T04:06:46.396Z,14.20
2019-05-25T04:07:55.410Z,15.27
2019-05-25T04:09:03.433Z,16.20
2019-05-25T04:10:13.955Z,13.83
2019-05-25T04:11:22.676Z,13.90
2019-05-25T04:12:31.625Z,10.83
2019-05-25T04:13:39.976Z,15.13
2019-05-25T04:14:49.000Z,15.73
2019-05-25T04:15:58.911Z,13.60
2019-05-25T04:17:07.716Z,12.70
2019-05-25T04:18:15.999Z,14.43
2019-05-25T04:19:24.986Z,17.27
2019-05-25T04:20:33.099Z,18.43
2019-05-25T04:21:42.087Z,15.43
2019-05-25T04:22:50.284Z,10.83
2019-05-25T04:23:58.970Z,14.27
2019-05-25T04:25:07.747Z,12.27
2019-05-25T04:26:22.375Z,15.57
2019-05-25T04:27:26.505Z,14.60
2019-05-25T04:28:35.229Z,13.37
2019-05-25T04:29:43.444Z,19.43
2019-05-25T04:30:52.018Z,17.83
2019-05-25T04:32:00.173Z,14.73
2019-05-25T04:33:08.977Z,15.60
2019-05-25T04:34:17.091Z,19.07
2019-05-25T04:35:25.919Z,15.23
2019-05-25T04:36:33.933Z,16.23
2019-05-25T04:37:42.863Z,15.47
2019-05-25T04:38:50.915Z,16.10
2019-05-25T04:39:59.736Z,15.17
2019-05-25T04:41:08.120Z,17.50
2019-05-25T04:42:16.834Z,15.50
2019-05-25T04:43:24.742Z,16.37
2019-05-25T04:44:34.051Z,16.63
2019-05-25T04:45:42.115Z,20.60
2019-05-25T04:46:51.095Z,16.23
2019-05-25T04:47:59.061Z,14.93
2019-05-25T04:49:07.605Z,15.57
2019-05-25T04:50:16.255Z,17.00
2019-05-25T04:51:25.329Z,15.47
2019-05-25T04:52:33.941Z,16.90
2019-05-25T04:53:43.124Z,15.87
2019-05-25T04:54:51.343Z,18.63
2019-05-25T04:56:00.461Z,19.00
2019-05-25T04:57:08.757Z,16.40
2019-05-25T04:58:18.276Z,15.80
2019-05-25T04:59:26.397Z,17.43
2019-05-25T05:00:35.547Z,19.60
2019-05-25T05:01:44.034Z,18.10
2019-05-25T05:02:53.307Z,13.83
2019-05-25T05:04:01.950Z,15.73
2019-05-25T05:05:11.082Z,17.90
2019-05-25T05:06:19.030Z,14.63
2019-05-25T05:07:27.539Z,20.60
2019-05-25T05:08:35.964Z,14.77
2019-05-25T05:09:44.832Z,19.33
2019-05-25T05:10:52.915Z,17.43
2019-05-25T05:12:01.913Z,14.03
2019-05-25T05:13:10.147Z,17.63
2019-05-25T05:14:19.419Z,15.90
2019-05-25T05:15:27.652Z,18.90
2019-05-25T05:16:37.152Z,14.87
2019-05-25T05:17:45.822Z,19.23
2019-05-25T05:18:55.096Z,15.30
2019-05-25T05:20:03.628Z,17.17
2019-05-25T05:21:13.055Z,15.07
2019-05-25T05:22:21.355Z,14.33
2019-05-25T05:23:30.675Z,15.50
2019-05-25T05:24:38.889Z,12.37
2019-05-25T05:25:48.464Z,20.83
2019-05-25T05:26:56.905Z,15.17
2019-05-25T05:28:06.171Z,13.10
2019-05-25T05:29:14.535Z,13.93
2019-05-25T05:30:35.663Z,17.07
2019-05-25T05:31:43.938Z,14.40
2019-05-25T05:32:53.211Z,16.57
2019-05-25T05:34:02.230Z,15.57
2019-05-25T05:35:12.043Z,16.27
2019-05-25T05:36:21.944Z,16.27
2019-05-25T05:37:32.923Z,16.33
2019-05-25T05:38:41.934Z,15.07
2019-05-25T05:39:51.781Z,17.77
2019-05-25T05:41:01.719Z,17.60
2019-05-25T05:42:15.058Z,15.77
2019-05-25T05:43:25.406Z,18.47
2019-05-25T05:44:38.113Z,14.70
2019-05-25T05:45:49.309Z,17.37
2019-05-25T05:47:00.849Z,14.03
2019-05-25T05:48:12.790Z,14.90
2019-05-25T05:49:22.011Z,21.47
2019-05-25T05:50:32.615Z,16.50
2019-05-25T05:51:44.642Z,15.73
2019-05-25T05:52:56.063Z,16.93
2019-05-25T05:54:06.922Z,15.27
2019-05-25T05:55:18.570Z,20.63
2019-05-25T05:56:27.614Z,15.13
2019-05-25T05:57:36.284Z,18.77
2019-05-25T05:58:45.183Z,21.50
2019-05-25T05:59:53.331Z,16.87
2019-05-25T06:01:02.576Z,17.90
2019-05-25T06:02:11.113Z,19.60
2019-05-25T06:03:20.133Z,21.03
2019-05-25T06:04:28.639Z,22.73
2019-05-25T06:05:37.601Z,21.50
2019-05-25T06:06:46.212Z,15.23
2019-05-25T06:07:55.586Z,18.67
2019-05-25T06:09:05.261Z,16.63
2019-05-25T06:10:15.268Z,16.50
2019-05-25T06:11:23.572Z,21.07
2019-05-25T06:12:33.066Z,16.60
2019-05-25T06:13:41.243Z,20.27
2019-05-25T06:14:50.397Z,16.70
2019-05-25T06:15:58.511Z,22.10
2019-05-25T06:17:07.114Z,17.37
2019-05-25T06:18:15.619Z,22.43
2019-05-25T06:19:24.979Z,19.20
2019-05-25T06:20:33.347Z,16.73
2019-05-25T06:21:42.847Z,18.60
2019-05-25T06:22:51.373Z,16.77
2019-05-25T06:24:00.424Z,21.40
2019-05-25T06:25:12.198Z,16.93
2019-05-25T06:26:20.891Z,20.37
2019-05-25T06:27:29.220Z,18.77
2019-05-25T06:28:45.136Z,16.17
2019-05-25T06:29:53.161Z,19.63
2019-05-25T06:31:02.204Z,16.57
2019-05-25T06:32:10.323Z,21.30
2019-05-25T06:33:19.472Z,19.57
2019-05-25T06:34:27.907Z,18.93
2019-05-25T06:35:36.615Z,19.00
2019-05-25T06:36:45.009Z,19.90
2019-05-25T06:37:54.313Z,19.95
2019-05-25T06:39:02.841Z,18.17
2019-05-25T06:40:12.866Z,18.97
2019-05-25T06:41:20.791Z,20.73
2019-05-25T06:42:29.643Z,15.90
2019-05-25T06:43:37.809Z,17.87
2019-05-25T06:44:46.778Z,18.37
2019-05-25T06:45:55.539Z,19.97
2019-05-25T06:47:04.932Z,17.42
2019-05-25T06:48:13.492Z,19.87
2019-05-25T06:49:21.913Z,20.50
2019-05-25T06:50:30.956Z,16.83
2019-05-25T06:51:39.682Z,16.27
2019-05-25T06:52:48.424Z,15.77
2019-05-25T06:53:57.618Z,14.13
2019-05-25T06:55:08.442Z,17.17
2019-05-25T06:56:17.146Z,20.37
2019-05-25T06:57:25.362Z,16.07
2019-05-25T06:58:34.535Z,19.97
2019-05-25T06:59:42.491Z,16.40
2019-05-25T07:00:51.481Z,13.80
2019-05-25T07:01:59.620Z,18.80
2019-05-25T07:03:08.364Z,16.07
2019-05-25T07:04:16.636Z,17.43
2019-05-25T07:05:25.855Z,14.77
2019-05-25T07:06:34.102Z,13.47
2019-05-25T07:07:42.810Z,16.33
2019-05-25T07:08:51.316Z,16.77
2019-05-25T07:10:00.013Z,16.80
2019-05-25T07:11:08.296Z,13.87
2019-05-25T07:12:17.105Z,20.87
2019-05-25T07:13:28.358Z,15.20
2019-05-25T07:14:35.875Z,15.43
2019-05-25T07:15:44.191Z,20.10
2019-05-25T07:16:53.167Z,19.07
2019-05-25T07:18:01.614Z,17.63
2019-05-25T07:19:10.387Z,18.87
2019-05-25T07:20:19.545Z,14.90
2019-05-25T07:21:28.864Z,22.67
2019-05-25T07:22:37.178Z,16.57
2019-05-25T07:23:46.652Z,19.17
2019-05-25T07:24:55.030Z,15.93
2019-05-25T07:26:04.217Z,15.00
2019-05-25T07:27:13.287Z,14.43
2019-05-25T07:28:22.493Z,17.17
2019-05-25T07:29:30.853Z,15.03
2019-05-25T07:30:40.409Z,16.80
2019-05-25T07:31:48.599Z,16.73
2019-05-25T07:32:57.679Z,15.83
2019-05-25T07:34:05.987Z,12.23
2019-05-25T07:35:15.077Z,13.80
2019-05-25T07:36:23.441Z,13.03
2019-05-25T07:37:32.464Z,18.00
2019-05-25T07:38:40.692Z,11.00
2019-05-25T07:39:49.098Z,13.00
2019-05-25T07:40:57.139Z,12.35
2019-05-25T07:42:06.126Z,17.53
2019-05-25T07:43:14.165Z,13.32
2019-05-25T07:44:22.973Z,12.83
2019-05-25T07:45:31.080Z,11.20
2019-05-25T07:46:39.797Z,15.30
2019-05-25T07:47:47.777Z,11.63
2019-05-25T07:48:56.907Z,12.20
2019-05-25T07:50:09.975Z,14.43
2019-05-25T07:51:19.729Z,16.50
2019-05-25T07:52:27.846Z,18.50
2019-05-25T07:53:38.825Z,12.47
2019-05-25T07:54:47.439Z,11.75
2019-05-25T07:55:56.391Z,10.80
2019-05-25T07:57:04.719Z,12.63
2019-05-25T07:58:17.644Z,10.93
2019-05-25T07:59:23.112Z,8.50
2019-05-25T08:00:32.122Z,10.50
2019-05-25T08:01:40.015Z,7.95
2019-05-25T08:02:49.268Z,13.35
2019-05-25T08:03:58.047Z,13.62
2019-05-25T08:05:10.143Z,9.78
2019-05-25T08:06:19.269Z,9.33
2019-05-25T08:07:32.661Z,9.18
2019-05-25T08:08:43.355Z,8.78
2019-05-25T08:09:53.957Z,13.10
2019-05-25T08:11:04.354Z,11.65
2019-05-25T08:12:13.783Z,10.05
2019-05-25T08:13:22.158Z,9.17
2019-05-25T08:14:30.996Z,8.48
2019-05-25T08:15:39.422Z,12.25
2019-05-25T08:16:48.237Z,11.40
2019-05-25T08:17:56.472Z,10.75
2019-05-25T08:19:05.491Z,9.48
2019-05-25T08:20:14.094Z,8.80
2019-05-25T08:21:22.873Z,10.60
2019-05-25T08:22:30.825Z,7.67
2019-05-25T08:23:40.079Z,7.70
2019-05-25T08:24:48.249Z,6.12
2019-05-25T08:25:57.797Z,6.72
2019-05-25T08:27:06.339Z,4.42
2019-05-25T08:28:29.842Z,5.90
2019-05-25T08:29:26.486Z,5.83
2019-05-25T08:30:35.459Z,5.73
2019-05-25T08:31:43.845Z,9.95
2019-05-25T08:32:52.920Z,13.08
2019-05-25T08:34:01.115Z,8.40
2019-05-25T08:35:10.271Z,7.35
2019-05-25T08:36:18.341Z,7.72
2019-05-25T08:37:27.174Z,9.33
2019-05-25T08:38:35.462Z,6.72
2019-05-25T08:39:44.605Z,7.08
2019-05-25T08:40:52.915Z,5.70
2019-05-25T08:42:02.849Z,8.23
2019-05-25T08:43:11.161Z,6.92
2019-05-25T08:44:20.373Z,6.05
2019-05-25T08:45:28.591Z,7.45
2019-05-25T08:46:37.878Z,10.23
2019-05-25T08:47:46.252Z,12.10
2019-05-25T08:48:55.528Z,8.40
2019-05-25T08:50:04.276Z,9.73
2019-05-25T08:51:13.613Z,10.55
2019-05-25T08:52:22.640Z,7.65
2019-05-25T08:53:41.546Z,9.88
2019-05-25T08:54:42.002Z,5.22
2019-05-25T08:55:50.863Z,7.53
2019-05-25T08:56:59.153Z,6.85
2019-05-25T08:58:07.989Z,11.88
2019-05-25T08:59:16.123Z,8.83
2019-05-25T09:00:25.166Z,6.90
2019-05-25T09:01:33.219Z,6.62
2019-05-25T09:02:42.304Z,6.37
2019-05-25T09:03:50.362Z,9.28
2019-05-25T09:04:59.510Z,4.50
2019-05-25T09:06:07.470Z,4.40
2019-05-25T09:07:16.428Z,8.50
2019-05-25T09:08:24.620Z,6.12
2019-05-25T09:09:33.433Z,6.37
2019-05-25T09:10:41.569Z,4.87
2019-05-25T09:11:51.203Z,6.62
2019-05-25T09:12:59.483Z,6.97
2019-05-25T09:14:08.733Z,5.62
2019-05-25T09:15:17.214Z,6.23
2019-05-25T09:16:26.225Z,5.45
2019-05-25T09:17:34.417Z,4.55
2019-05-25T09:18:42.754Z,8.05
2019-05-25T09:19:50.939Z,6.08
2019-05-25T09:21:00.233Z,4.05
2019-05-25T09:22:08.655Z,6.53
2019-05-25T09:23:17.900Z,5.78
2019-05-25T09:24:26.056Z,5.95
2019-05-25T09:25:35.298Z,5.00
2019-05-25T09:26:44.359Z,5.85
2019-05-25T09:27:53.203Z,4.30
2019-05-25T09:29:04.611Z,8.05
2019-05-25T09:30:12.606Z,3.25
2019-05-25T09:31:20.901Z,4.50
2019-05-25T09:32:30.996Z,4.67
2019-05-25T09:33:39.159Z,7.35
2019-05-25T09:34:48.558Z,7.45
2019-05-25T09:35:56.727Z,5.28
2019-05-25T09:37:05.675Z,8.13
2019-05-25T09:38:14.212Z,5.40
2019-05-25T09:39:23.299Z,7.40
2019-05-25T09:40:33.423Z,5.55
2019-05-25T09:41:42.782Z,3.75
2019-05-25T09:42:51.630Z,3.65
2019-05-25T09:44:01.482Z,2.62
2019-05-25T09:45:13.899Z,7.25
2019-05-25T09:46:21.235Z,4.75
2019-05-25T09:47:29.896Z,5.45
2019-05-25T09:48:38.844Z,3.42
2019-05-25T09:49:47.360Z,5.08
2019-05-25T09:50:56.453Z,4.22
2019-05-25T09:52:04.844Z,3.92
2019-05-25T09:53:14.077Z,5.85
2019-05-25T09:54:23.330Z,5.15
2019-05-25T09:55:34.634Z,5.00
2019-05-25T09:56:43.119Z,6.50
2019-05-25T09:57:52.433Z,3.02
2019-05-25T09:59:00.854Z,3.10
2019-05-25T10:00:13.108Z,3.95
2019-05-25T10:01:23.227Z,3.58
2019-05-25T10:02:32.607Z,2.72
2019-05-25T10:03:41.222Z,2.87
2019-05-25T10:04:50.076Z,3.17
2019-05-25T10:05:58.549Z,4.00
2019-05-25T10:07:08.184Z,2.75
2019-05-25T10:08:16.203Z,2.87
2019-05-25T10:09:25.659Z,5.05
2019-05-25T10:10:34.517Z,3.87
2019-05-25T10:11:44.538Z,5.15
2019-05-25T10:12:55.343Z,3.80
2019-05-25T10:14:04.235Z,2.30
2019-05-25T10:15:12.857Z,6.05
2019-05-25T10:16:21.924Z,6.30
2019-05-25T10:17:30.353Z,3.47
2019-05-25T10:18:39.929Z,2.62
2019-05-25T10:19:48.664Z,3.17
2019-05-25T10:20:57.629Z,2.87
2019-05-25T10:22:06.497Z,5.72
2019-05-25T10:23:15.870Z,2.98
2019-05-25T10:24:24.499Z,7.72
2019-05-25T10:25:33.560Z,7.72
2019-05-25T10:26:42.201Z,7.25
2019-05-25T10:27:51.325Z,7.60
2019-05-25T10:28:59.860Z,5.08
2019-05-25T10:30:11.283Z,3.15
2019-05-25T10:31:20.019Z,3.77
2019-05-25T10:32:29.312Z,4.15
2019-05-25T10:33:38.767Z,5.72
2019-05-25T10:34:48.301Z,4.67
2019-05-25T10:36:32.636Z,3.05
2019-05-25T10:37:42.090Z,5.25
2019-05-25T10:38:50.722Z,3.10
2019-05-25T10:39:59.910Z,4.80
2019-05-25T10:41:07.972Z,3.62
2019-05-25T10:42:17.136Z,3.92
2019-05-25T10:43:25.080Z,3.05
2019-05-25T10:44:34.553Z,7.75
2019-05-25T10:45:43.169Z,4.05
2019-05-25T10:46:52.043Z,4.33
2019-05-25T10:48:00.177Z,4.35
2019-05-25T10:49:11.686Z,4.45
2019-05-25T10:50:19.632Z,4.33
2019-05-25T10:51:28.664Z,4.67
2019-05-25T10:52:37.253Z,3.40
2019-05-25T10:53:46.193Z,3.80
2019-05-25T10:54:54.371Z,4.33
2019-05-25T10:56:02.885Z,6.80
2019-05-25T10:57:13.240Z,6.35
2019-05-25T10:58:21.557Z,3.95
2019-05-25T10:59:29.994Z,4.12
2019-05-25T11:00:38.948Z,6.58
2019-05-25T11:01:47.031Z,3.65
2019-05-25T11:02:56.686Z,2.80
2019-05-25T11:04:05.662Z,3.55
2019-05-25T11:05:16.430Z,3.27
2019-05-25T11:06:24.594Z,5.05
2019-05-25T11:07:33.582Z,3.37
2019-05-25T11:08:42.296Z,2.65
2019-05-25T11:09:52.300Z,6.25
2019-05-25T11:11:00.539Z,3.20
2019-05-25T11:12:09.719Z,5.35
2019-05-25T11:13:18.451Z,3.83
2019-05-25T11:14:27.535Z,4.22
2019-05-25T11:15:36.015Z,3.70
2019-05-25T11:16:45.216Z,4.30
2019-05-25T11:17:53.532Z,3.83
2019-05-25T11:19:02.359Z,3.30
2019-05-25T11:20:12.236Z,4.45
2019-05-25T11:21:21.146Z,5.72
2019-05-25T11:22:29.342Z,5.58
2019-05-25T11:23:39.070Z,4.72
2019-05-25T11:24:47.243Z,4.87
2019-05-25T11:25:56.814Z,2.47
2019-05-25T11:27:04.937Z,5.03
2019-05-25T11:28:13.872Z,5.10
2019-05-25T11:29:22.236Z,3.90
2019-05-25T11:30:31.190Z,3.35
2019-05-25T11:31:39.424Z,2.17
2019-05-25T11:32:48.328Z,3.25
2019-05-25T11:33:56.749Z,3.83
2019-05-25T11:35:07.514Z,2.95
2019-05-25T11:36:15.355Z,5.95
2019-05-25T11:37:24.771Z,2.20
2019-05-25T11:38:32.963Z,4.80
2019-05-25T11:39:42.106Z,2.77
2019-05-25T11:40:50.527Z,4.08
2019-05-25T11:41:59.804Z,3.60
2019-05-25T11:43:07.970Z,2.02
2019-05-25T11:44:17.082Z,6.08
2019-05-25T11:45:25.363Z,2.58
2019-05-25T11:46:34.247Z,2.67
2019-05-25T11:47:42.282Z,2.30
2019-05-25T11:48:51.402Z,2.22
2019-05-25T11:49:59.735Z,3.70
2019-05-25T11:51:08.411Z,3.92
2019-05-25T11:52:16.540Z,4.30
2019-05-25T11:53:25.521Z,2.98
2019-05-25T11:54:33.721Z,3.12
2019-05-25T11:55:42.753Z,3.42
2019-05-25T11:56:50.803Z,2.92
2019-05-25T11:57:59.818Z,3.90
2019-05-25T11:59:07.925Z,2.67
2019-05-25T12:00:25.565Z,3.37
2019-05-25T12:01:31.110Z,4.08
2019-05-25T12:02:40.348Z,4.28
2019-05-25T12:03:48.548Z,6.17
2019-05-25T12:04:57.553Z,2.47
2019-05-25T12:06:05.629Z,4.83
2019-05-25T12:07:14.591Z,6.90
2019-05-25T12:08:22.974Z,4.03
2019-05-25T12:09:31.709Z,3.60
2019-05-25T12:10:42.404Z,2.55
2019-05-25T12:11:51.736Z,3.52
2019-05-25T12:13:00.576Z,3.70
2019-05-25T12:14:09.765Z,5.45
2019-05-25T12:15:19.440Z,3.45
2019-05-25T12:16:28.029Z,3.98
2019-05-25T12:17:36.158Z,3.72
2019-05-25T12:18:44.927Z,6.28
2019-05-25T12:19:53.059Z,5.87
2019-05-25T12:21:02.645Z,5.92
2019-05-25T12:22:10.692Z,7.08
2019-05-25T12:23:19.068Z,6.47
2019-05-25T12:24:27.100Z,5.12
2019-05-25T12:25:36.189Z,4.10
2019-05-25T12:26:44.410Z,3.52
2019-05-25T12:27:54.049Z,5.28
2019-05-25T12:29:02.120Z,3.55
2019-05-25T12:30:11.247Z,4.12
2019-05-25T12:31:19.507Z,3.62
2019-05-25T12:32:28.714Z,3.80
2019-05-25T12:33:36.950Z,2.27
2019-05-25T12:34:46.385Z,5.22
2019-05-25T12:35:55.010Z,11.08
2019-05-25T12:37:04.005Z,3.10
2019-05-25T12:38:12.175Z,3.08
2019-05-25T12:39:21.982Z,3.80
2019-05-25T12:40:30.278Z,4.83
2019-05-25T12:41:39.537Z,2.92
2019-05-25T12:42:47.698Z,3.67
2019-05-25T12:43:56.443Z,5.30
2019-05-25T12:45:05.466Z,6.58
2019-05-25T12:46:14.254Z,3.62
2019-05-25T12:47:22.527Z,2.80
2019-05-25T12:48:31.438Z,2.27
2019-05-25T12:49:50.284Z,3.70
2019-05-25T12:50:50.840Z,2.83
2019-05-25T12:51:59.182Z,6.37
2019-05-25T12:53:08.275Z,2.33
2019-05-25T12:54:16.649Z,4.17
2019-05-25T12:55:25.582Z,3.12
2019-05-25T12:56:33.909Z,6.37
2019-05-25T12:57:42.600Z,2.42
2019-05-25T12:58:50.661Z,3.42
2019-05-25T13:00:14.288Z,2.75
2019-05-25T13:01:09.723Z,2.98
2019-05-25T13:02:18.043Z,6.90
2019-05-25T13:03:28.360Z,6.85
2019-05-25T13:04:36.951Z,2.75
2019-05-25T13:05:45.288Z,3.60
2019-05-25T13:06:54.101Z,3.87
2019-05-25T13:08:02.290Z,5.45
2019-05-25T13:09:12.242Z,4.65
2019-05-25T13:10:20.559Z,4.30
2019-05-25T13:11:29.767Z,4.42
2019-05-25T13:12:37.937Z,3.62
2019-05-25T13:13:46.946Z,5.33
2019-05-25T13:14:55.657Z,5.90
2019-05-25T13:16:05.485Z,6.60
2019-05-25T13:17:14.147Z,4.65
2019-05-25T13:18:23.317Z,3.80
2019-05-25T13:19:31.637Z,4.78
2019-05-25T13:20:40.799Z,5.70
2019-05-25T13:21:49.252Z,4.62
2019-05-25T13:22:58.421Z,3.50
2019-05-25T13:24:06.940Z,3.17
2019-05-25T13:25:16.059Z,7.37
2019-05-25T13:26:24.379Z,2.60
2019-05-25T13:27:33.912Z,2.22
2019-05-25T13:28:41.924Z,3.20
2019-05-25T13:29:51.095Z,4.95
2019-05-25T13:31:11.383Z,3.55
2019-05-25T13:32:10.689Z,3.25
2019-05-25T13:33:19.491Z,3.50
2019-05-25T13:34:28.507Z,3.98
2019-05-25T13:35:37.125Z,2.10
2019-05-25T13:36:46.127Z,6.65
2019-05-25T13:37:54.451Z,5.47
2019-05-25T13:39:03.767Z,3.15
2019-05-25T13:40:12.681Z,3.20
2019-05-25T13:41:21.881Z,3.40
2019-05-25T13:42:30.088Z,5.20
2019-05-25T13:43:38.767Z,4.00
2019-05-25T13:44:46.919Z,3.08
2019-05-25T13:45:55.424Z,3.35
2019-05-25T13:47:04.026Z,5.78
2019-05-25T13:48:12.808Z,2.83
2019-05-25T13:49:21.509Z,4.58
2019-05-25T13:50:30.758Z,3.02
2019-05-25T13:51:39.327Z,3.10
2019-05-25T13:52:48.804Z,4.92
2019-05-25T13:53:56.786Z,5.40
2019-05-25T13:55:06.658Z,3.87
2019-05-25T13:56:14.940Z,4.40
2019-05-25T13:57:24.116Z,4.10
2019-05-25T13:58:32.975Z,4.10
2019-05-25T13:59:42.015Z,3.20
2019-05-25T14:00:50.194Z,2.98
2019-05-25T14:01:58.895Z,2.22
2019-05-25T14:03:07.105Z,2.85
2019-05-25T14:04:16.188Z,4.15
2019-05-25T14:05:24.348Z,3.62
2019-05-25T14:06:33.735Z,3.00
2019-05-25T14:07:43.494Z,3.10
2019-05-25T14:08:52.126Z,2.75
2019-05-25T14:10:00.729Z,6.12
2019-05-25T14:11:09.926Z,4.78
2019-05-25T14:12:18.528Z,3.50
2019-05-25T14:13:27.663Z,3.00
2019-05-25T14:14:36.005Z,2.75
2019-05-25T14:15:44.978Z,3.80
2019-05-25T14:16:53.395Z,3.37
2019-05-25T14:18:02.459Z,3.58
2019-05-25T14:19:10.582Z,4.30
2019-05-25T14:20:20.031Z,3.12
2019-05-25T14:21:28.464Z,5.17
2019-05-25T14:22:38.017Z,2.05
2019-05-25T14:23:46.198Z,5.78
2019-05-25T14:24:55.105Z,3.42
2019-05-25T14:26:03.968Z,3.90
2019-05-25T14:27:12.703Z,2.80
2019-05-25T14:28:20.797Z,3.27
2019-05-25T14:29:29.817Z,3.80
2019-05-25T14:30:38.434Z,3.05
2019-05-25T14:31:47.462Z,2.27
2019-05-25T14:32:55.477Z,2.35
2019-05-25T14:34:04.715Z,2.50
2019-05-25T14:35:13.978Z,2.72
2019-05-25T14:36:23.138Z,4.17
2019-05-25T14:37:31.321Z,2.77
2019-05-25T14:38:40.648Z,2.08
2019-05-25T14:39:49.469Z,3.77
2019-05-25T14:40:58.409Z,6.15
2019-05-25T14:42:06.734Z,3.20
2019-05-25T14:43:16.121Z,4.78
2019-05-25T14:44:24.970Z,3.92
2019-05-25T14:45:34.255Z,3.42
2019-05-25T14:46:42.598Z,4.60
2019-05-25T14:47:51.729Z,3.35
2019-05-25T14:49:00.297Z,3.85
2019-05-25T14:50:11.427Z,3.47
2019-05-25T14:51:19.523Z,4.80
2019-05-25T14:52:28.602Z,6.53
2019-05-25T14:53:37.702Z,6.45
2019-05-25T14:54:47.277Z,7.03
2019-05-25T14:55:56.504Z,3.70
2019-05-25T14:57:06.722Z,4.85
2019-05-25T14:58:15.914Z,6.22
2019-05-25T14:59:25.243Z,5.12
2019-05-25T15:00:33.466Z,4.30
2019-05-25T15:01:43.883Z,5.50